Time;durP1;ratioP1;P1;durP2;ratioP2;P2;SDS_P1;SDS_P2;PMS_P1;PMS_P2;Temp;Humidity;BMP_temperature;BMP_pressure;BME280_temperature;BME280_humidity;BME280_pressure;Samples;Min_cycle;Max_cycle;Signal;HPM_P1;HPM_P2
2022/10/19 00:01:08;;;;;;;23.43;12.27;;;13.30;99.90;;;;;;2603747;54;20778;31
2022/10/19 00:03:42;;;;;;;17.80;12.85;;;13.20;99.90;;;;;;2603662;54;20922;31
2022/10/19 00:06:18;;;;;;;21.38;13.40;;;13.20;99.90;;;;;;2603666;54;20906;31
2022/10/19 00:08:52;;;;;;;24.63;13.48;;;13.10;99.90;;;;;;2603899;54;20044;31
2022/10/19 00:11:26;;;;;;;22.75;14.00;;;13.10;99.90;;;;;;2603852;54;20111;31
2022/10/19 00:14:01;;;;;;;20.70;13.60;;;13.10;99.90;;;;;;2603724;54;20030;31
2022/10/19 00:16:38;;;;;;;21.95;13.55;;;13.10;99.90;;;;;;2603933;54;20060;31
2022/10/19 00:19:14;;;;;;;27.63;14.80;;;13.30;99.90;;;;;;2603394;54;21040;31
2022/10/19 00:21:49;;;;;;;23.95;14.98;;;13.30;99.90;;;;;;2603731;54;20023;31
2022/10/19 00:24:23;;;;;;;19.60;13.13;;;12.90;99.90;;;;;;2603686;54;20042;31
2022/10/19 00:26:57;;;;;;;19.13;13.52;;;12.80;99.90;;;;;;2603577;54;19935;31
2022/10/19 00:29:31;;;;;;;19.00;13.35;;;13.10;99.90;;;;;;2622551;46;20046;31
2022/10/19 00:32:08;;;;;;;26.05;15.23;;;12.80;99.90;;;;;;2603475;54;20910;31
2022/10/19 00:34:43;;;;;;;22.13;13.68;;;12.90;99.90;;;;;;2603539;54;20904;31
2022/10/19 00:37:17;;;;;;;23.05;14.40;;;12.70;99.90;;;;;;2603678;54;20034;31
2022/10/19 00:39:51;;;;;;;31.17;15.30;;;13.00;99.90;;;;;;2603848;54;20116;31
2022/10/19 00:42:25;;;;;;;20.43;14.43;;;12.70;99.90;;;;;;2603706;54;20033;31
2022/10/19 00:45:05;;;;;;;24.08;14.80;;;12.70;99.90;;;;;;2603772;54;20917;31
2022/10/19 00:47:42;;;;;;;22.60;14.50;;;12.60;99.90;;;;;;2603693;54;20086;31
2022/10/19 00:50:16;;;;;;;27.90;15.50;;;12.80;99.90;;;;;;2603901;54;20033;31
2022/10/19 00:52:50;;;;;;;19.05;13.70;;;12.60;99.90;;;;;;2603604;54;20856;31
2022/10/19 00:55:24;;;;;;;27.90;15.23;;;12.50;99.90;;;;;;2603647;54;20896;31
2022/10/19 00:57:58;;;;;;;26.60;15.10;;;12.50;99.90;;;;;;2603611;54;20030;31
2022/10/19 01:00:32;;;;;;;29.83;17.10;;;12.40;99.90;;;;;;2603475;54;20925;31
2022/10/19 01:03:10;;;;;;;24.17;15.33;;;12.70;99.90;;;;;;2603482;54;20029;31
2022/10/19 01:05:45;;;;;;;22.45;15.70;;;12.40;99.90;;;;;;2603392;54;20901;31
2022/10/19 01:08:20;;;;;;;25.25;15.55;;;12.40;99.90;;;;;;2603670;54;20049;31
2022/10/19 01:10:57;;;;;;;24.38;15.63;;;12.40;99.90;;;;;;2603514;54;19939;31
2022/10/19 01:13:38;;;;;;;23.85;14.35;;;12.50;99.90;;;;;;2622211;46;20965;31
2022/10/19 01:16:16;;;;;;;22.40;13.70;;;12.40;99.90;;;;;;2603690;54;20879;31
2022/10/19 01:18:55;;;;;;;23.85;14.45;;;12.40;99.90;;;;;;2603635;54;20023;31
2022/10/19 01:21:30;;;;;;;21.30;15.23;;;12.30;99.90;;;;;;2603625;54;20122;31
2022/10/19 01:24:35;;;;;;;16.50;12.50;;;12.60;99.90;;;;;;2603661;54;20033;31
2022/10/19 01:27:33;;;;;;;17.87;13.03;;;12.30;99.90;;;;;;2702199;39;21085;31
2022/10/19 01:30:05;;;;;;;19.75;13.10;;;12.20;99.90;;;;;;2603702;54;20803;31
2022/10/19 01:32:53;;;;;;;23.95;13.43;;;12.20;99.90;;;;;;2603660;54;20026;31
2022/10/19 01:35:30;;;;;;;20.80;11.50;;;12.10;99.90;;;;;;2603350;54;20129;31
2022/10/19 01:38:09;;;;;;;23.48;13.10;;;12.10;99.90;;;;;;2603509;54;20095;31
2022/10/19 01:40:46;;;;;;;19.83;14.18;;;12.10;99.90;;;;;;2603756;54;20949;31
2022/10/19 01:43:23;;;;;;;20.80;14.20;;;12.10;99.90;;;;;;2621985;46;20845;31
2022/10/19 01:46:01;;;;;;;25.92;14.23;;;12.20;99.90;;;;;;2603009;54;20022;31
2022/10/19 01:48:38;;;;;;;23.67;16.15;;;12.10;99.90;;;;;;2603375;54;20100;31
2022/10/19 01:51:14;;;;;;;29.33;17.40;;;12.10;99.90;;;;;;2603339;54;20885;31
2022/10/19 01:53:49;;;;;;;45.90;19.27;;;12.10;99.90;;;;;;2603321;54;20027;31
2022/10/19 01:56:25;;;;;;;30.63;18.13;;;12.10;99.90;;;;;;2603100;54;20031;31
2022/10/19 01:59:00;;;;;;;27.47;18.77;;;12.10;99.90;;;;;;2603208;54;20042;31
2022/10/19 02:01:36;;;;;;;33.15;18.92;;;12.20;99.90;;;;;;2603238;54;20029;31
2022/10/19 02:04:13;;;;;;;32.85;20.00;;;12.20;99.90;;;;;;2603424;54;20034;31
2022/10/19 02:06:47;;;;;;;30.83;19.88;;;12.20;99.90;;;;;;2603336;54;20022;31
2022/10/19 02:09:21;;;;;;;38.20;22.08;;;12.20;99.90;;;;;;2622026;46;20026;31
2022/10/19 02:11:58;;;;;;;32.70;21.20;;;12.50;99.90;;;;;;2621548;46;20030;31
2022/10/19 02:14:32;;;;;;;;;;;12.30;99.90;;;;;;2603549;54;20022;31
2022/10/19 02:17:08;;;;;;;37.10;21.23;;;12.20;99.90;;;;;;2603689;54;19941;31
2022/10/19 02:19:45;;;;;;;34.95;21.52;;;12.20;99.90;;;;;;2603395;54;20853;31
2022/10/19 02:22:19;;;;;;;35.30;20.80;;;12.20;99.90;;;;;;2603510;54;20890;31
2022/10/19 02:24:51;;;;;;;42.70;23.63;;;12.30;99.90;;;;;;2603370;54;20164;31
2022/10/19 02:27:25;;;;;;;34.60;21.70;;;12.20;99.90;;;;;;2622210;46;20037;31
2022/10/19 02:29:59;;;;;;;38.00;23.13;;;12.30;99.90;;;;;;2603214;54;20030;31
2022/10/19 02:32:33;;;;;;;35.60;22.58;;;12.30;99.90;;;;;;2603132;54;20828;31
2022/10/19 02:35:11;;;;;;;35.30;22.85;;;12.30;99.90;;;;;;2603329;54;20027;31
2022/10/19 02:37:43;;;;;;;39.00;23.02;;;12.40;99.90;;;;;;2603345;54;20060;31
2022/10/19 02:40:17;;;;;;;37.00;22.83;;;12.40;99.90;;;;;;2603108;54;20919;31
2022/10/19 02:42:52;;;;;;;37.22;23.88;;;12.30;99.90;;;;;;2603308;54;20125;31
2022/10/19 02:45:28;;;;;;;41.70;23.00;;;12.40;99.90;;;;;;2621666;46;20034;31
2022/10/19 02:48:02;;;;;;;;;;;12.40;99.90;;;;;;2603365;54;20034;31
2022/10/19 02:50:39;;;;;;;42.23;23.43;;;12.40;99.90;;;;;;2603211;54;19942;31
2022/10/19 02:53:13;;;;;;;41.20;24.60;;;12.40;99.90;;;;;;2621620;46;20933;31
2022/10/19 02:55:49;;;;;;;41.50;24.40;;;12.40;99.90;;;;;;2603198;54;20896;31
2022/10/19 02:58:23;;;;;;;36.50;23.48;;;12.30;99.90;;;;;;2621815;46;20852;31
2022/10/19 03:00:57;;;;;;;41.30;23.55;;;12.30;99.90;;;;;;2603338;54;20033;31
2022/10/19 03:03:31;;;;;;;35.67;24.43;;;12.40;99.90;;;;;;2603253;54;20038;31
2022/10/19 03:06:08;;;;;;;41.53;23.90;;;12.40;99.90;;;;;;2602684;54;20038;31
2022/10/19 03:08:42;;;;;;;38.85;24.25;;;12.40;99.90;;;;;;2621871;46;20860;31
2022/10/19 03:11:16;;;;;;;39.70;23.95;;;12.30;99.90;;;;;;2603221;54;20894;31
2022/10/19 03:13:51;;;;;;;46.55;25.48;;;12.50;99.90;;;;;;2621841;46;20027;31
2022/10/19 03:16:25;;;;;;;44.88;25.55;;;12.40;99.90;;;;;;2603268;54;20044;31
2022/10/19 03:19:00;;;;;;;40.65;24.40;;;12.40;99.90;;;;;;2603238;54;20046;31
2022/10/19 03:21:37;;;;;;;43.75;24.80;;;12.30;99.90;;;;;;2602972;54;20053;31
2022/10/19 03:24:11;;;;;;;47.80;24.90;;;12.30;99.90;;;;;;2603086;54;20990;31
2022/10/19 03:26:45;;;;;;;46.38;25.00;;;12.40;99.90;;;;;;2603326;54;20031;31
2022/10/19 03:29:17;;;;;;;42.67;25.10;;;12.30;99.90;;;;;;2628175;39;22307;31
2022/10/19 03:31:52;;;;;;;48.75;24.85;;;12.10;99.90;;;;;;2602870;54;20030;31
2022/10/19 03:34:26;;;;;;;45.75;25.50;;;12.30;99.90;;;;;;2603259;54;20027;31
2022/10/19 03:37:04;;;;;;;38.28;23.92;;;12.20;99.90;;;;;;2603170;54;20841;31
2022/10/19 03:39:38;;;;;;;39.35;23.48;;;12.20;99.90;;;;;;2603146;54;20038;31
2022/10/19 03:42:12;;;;;;;45.25;24.10;;;12.10;99.90;;;;;;2603001;54;20022;31
2022/10/19 03:44:47;;;;;;;41.42;23.20;;;12.10;99.90;;;;;;2603198;54;20034;31
2022/10/19 03:47:21;;;;;;;38.10;23.65;;;12.00;99.90;;;;;;2602790;54;20871;31
2022/10/19 03:49:56;;;;;;;43.00;23.52;;;12.00;99.90;;;;;;2603087;54;20898;31
2022/10/19 03:52:33;;;;;;;42.47;23.35;;;12.00;99.90;;;;;;2602763;54;20088;31
2022/10/19 03:55:09;;;;;;;34.72;21.60;;;12.10;99.90;;;;;;2603105;54;20026;31
2022/10/19 03:57:43;;;;;;;40.75;23.30;;;11.90;99.90;;;;;;2603114;54;20891;31
2022/10/19 04:00:18;;;;;;;39.60;22.90;;;12.10;99.90;;;;;;2603222;54;20801;31
2022/10/19 04:02:54;;;;;;;37.38;22.08;;;11.90;99.90;;;;;;2602877;54;20887;31
2022/10/19 04:05:28;;;;;;;32.30;21.20;;;11.80;99.90;;;;;;2602971;54;20879;31
2022/10/19 04:08:05;;;;;;;41.55;22.40;;;11.80;99.90;;;;;;2603096;54;20101;31
2022/10/19 04:10:39;;;;;;;36.40;22.13;;;11.80;99.90;;;;;;2603043;54;20804;31
2022/10/19 04:13:14;;;;;;;34.60;21.93;;;11.70;99.90;;;;;;2603028;54;20824;31
2022/10/19 04:15:50;;;;;;;35.88;20.67;;;11.70;99.90;;;;;;2602811;54;20026;31
2022/10/19 04:18:22;;;;;;;36.13;20.57;;;11.70;99.90;;;;;;2701727;39;22353;31
2022/10/19 04:20:58;;;;;;;34.15;20.92;;;11.70;99.90;;;;;;2603442;54;19957;31
2022/10/19 04:23:35;;;;;;;36.50;22.00;;;11.80;99.90;;;;;;2603929;54;20026;31
2022/10/19 04:26:09;;;;;;;41.30;22.45;;;11.70;99.90;;;;;;2603998;54;20250;31
2022/10/19 04:28:44;;;;;;;34.35;20.88;;;11.80;99.90;;;;;;2603615;54;20093;31
2022/10/19 04:31:18;;;;;;;32.20;20.70;;;11.70;99.90;;;;;;2603775;54;20793;31
2022/10/19 04:33:53;;;;;;;35.23;20.60;;;11.80;99.90;;;;;;2603528;54;20258;31
2022/10/19 04:36:27;;;;;;;31.33;19.83;;;11.70;99.90;;;;;;2603657;54;20243;31
2022/10/19 04:39:04;;;;;;;38.47;20.13;;;11.70;99.90;;;;;;2603840;54;20037;31
2022/10/19 04:41:39;;;;;;;38.30;19.95;;;11.70;99.90;;;;;;2622487;46;20037;31
2022/10/19 04:44:14;;;;;;;35.53;20.80;;;11.70;99.90;;;;;;2622441;46;20030;31
2022/10/19 04:46:48;;;;;;;36.60;18.77;;;11.60;99.90;;;;;;2603447;54;20797;31
2022/10/19 04:49:22;;;;;;;27.83;17.25;;;11.60;99.90;;;;;;2603569;54;20271;31
2022/10/19 04:51:56;;;;;;;31.35;18.90;;;11.60;99.90;;;;;;2603625;54;20029;31
2022/10/19 04:54:33;;;;;;;29.23;17.27;;;11.80;99.90;;;;;;2603586;54;25030;31
2022/10/19 04:57:08;;;;;;;28.23;16.55;;;11.60;99.90;;;;;;2603601;54;20030;31
2022/10/19 04:59:43;;;;;;;28.07;16.67;;;11.50;99.90;;;;;;2603445;54;20711;31
2022/10/19 05:02:17;;;;;;;25.73;15.90;;;11.50;99.90;;;;;;2622297;46;20263;31
2022/10/19 05:04:51;;;;;;;27.47;15.30;;;11.70;99.90;;;;;;2603276;54;20035;31
2022/10/19 05:07:26;;;;;;;25.77;16.13;;;11.40;99.90;;;;;;2603633;54;20027;31
2022/10/19 05:10:03;;;;;;;28.55;15.43;;;11.70;99.90;;;;;;2603595;54;20038;31
2022/10/19 05:12:37;;;;;;;26.25;15.13;;;11.40;99.90;;;;;;2603613;54;20027;31
2022/10/19 05:15:12;;;;;;;26.30;15.07;;;11.40;99.90;;;;;;2603695;54;20073;31
2022/10/19 05:17:48;;;;;;;25.83;15.20;;;11.40;99.90;;;;;;2621887;46;20029;31
2022/10/19 05:20:22;;;;;;;23.55;14.20;;;11.40;99.90;;;;;;2603356;54;20037;31
2022/10/19 05:22:57;;;;;;;26.25;13.85;;;11.40;99.90;;;;;;2603544;54;20034;31
2022/10/19 05:25:39;;;;;;;18.35;12.40;;;11.40;99.90;;;;;;2613342;46;20918;31
2022/10/19 05:28:13;;;;;;;16.55;12.13;;;11.40;99.90;;;;;;2622227;46;20030;31
2022/10/19 05:30:47;;;;;;;18.98;11.52;;;11.50;99.90;;;;;;2603446;54;20023;31
2022/10/19 05:33:21;;;;;;;21.30;11.50;;;11.40;99.90;;;;;;2603391;54;20902;31
2022/10/19 05:35:55;;;;;;;19.48;11.55;;;11.50;99.90;;;;;;2603270;54;20954;31
2022/10/19 05:38:31;;;;;;;21.23;11.70;;;11.40;99.90;;;;;;2622019;46;20034;31
2022/10/19 05:41:08;;;;;;;19.02;11.55;;;11.40;99.90;;;;;;2603597;54;20786;31
2022/10/19 05:43:42;;;;;;;16.75;11.70;;;11.40;99.90;;;;;;2603518;54;20986;31
2022/10/19 05:46:18;;;;;;;16.60;10.50;;;11.40;99.90;;;;;;2621703;46;20860;31
2022/10/19 05:48:53;;;;;;;16.52;10.10;;;11.70;99.90;;;;;;2603519;54;20820;31
2022/10/19 05:51:28;;;;;;;16.60;9.18;;;11.30;99.90;;;;;;2603503;54;20089;31
2022/10/19 05:54:02;;;;;;;17.83;10.05;;;11.40;99.90;;;;;;2603613;54;20038;31
2022/10/19 05:56:39;;;;;;;14.55;8.38;;;11.70;99.90;;;;;;2603424;54;20909;31
2022/10/19 05:59:16;;;;;;;12.95;8.65;;;11.30;99.90;;;;;;2603624;54;20875;31
2022/10/19 06:01:50;;;;;;;15.35;7.85;;;11.30;99.90;;;;;;2603229;54;20842;31
2022/10/19 06:04:24;;;;;;;21.10;8.45;;;11.30;99.90;;;;;;2603273;54;20042;31
2022/10/19 06:06:58;;;;;;;14.73;7.60;;;11.20;99.90;;;;;;2603178;54;20109;31
2022/10/19 06:09:35;;;;;;;14.70;8.05;;;11.20;99.90;;;;;;2603249;54;19958;31
2022/10/19 06:12:12;;;;;;;18.10;7.53;;;11.30;99.90;;;;;;2621189;46;20065;31
2022/10/19 06:14:52;;;;;;;16.67;6.35;;;11.50;99.90;;;;;;2603453;54;20029;31
2022/10/19 06:17:28;;;;;;;12.52;7.10;;;11.20;99.90;;;;;;2603490;54;19957;31
2022/10/19 06:20:03;;;;;;;15.25;6.60;;;11.10;99.90;;;;;;2603311;54;20026;31
2022/10/19 06:22:37;;;;;;;18.08;8.13;;;11.10;99.90;;;;;;2603306;54;20135;31
2022/10/19 06:25:12;;;;;;;11.15;5.70;;;11.10;99.90;;;;;;2621617;46;20875;31
2022/10/19 06:27:56;;;;;;;12.63;6.73;;;11.10;99.90;;;;;;2603077;54;20033;31
2022/10/19 06:30:30;;;;;;;14.85;5.80;;;11.10;99.90;;;;;;2603165;54;20867;31
2022/10/19 06:33:05;;;;;;;12.88;6.30;;;11.20;99.90;;;;;;2603204;54;20049;31
2022/10/19 06:35:41;;;;;;;10.93;5.45;;;11.20;99.90;;;;;;2603203;54;20018;31
2022/10/19 06:38:17;;;;;;;;;;;11.20;99.90;;;;;;2603386;54;20952;31
2022/10/19 06:40:51;;;;;;;10.02;5.80;;;11.20;99.90;;;;;;2602945;54;20775;31
2022/10/19 06:43:28;;;;;;;14.05;6.05;;;11.20;99.90;;;;;;2603194;54;21029;31
2022/10/19 06:46:05;;;;;;;15.20;5.30;;;11.60;99.90;;;;;;2603340;54;20113;31
2022/10/19 06:48:40;;;;;;;10.85;5.95;;;11.50;99.90;;;;;;2603198;54;20028;31
2022/10/19 06:51:14;;;;;;;38.90;7.10;;;11.20;99.90;;;;;;2603219;54;20981;31
2022/10/19 06:53:47;;;;;;;14.05;6.63;;;11.20;99.90;;;;;;2701808;39;21197;31
2022/10/19 06:56:29;;;;;;;11.75;5.50;;;11.20;99.90;;;;;;2701595;39;21467;31
2022/10/19 06:59:07;;;;;;;14.82;6.40;;;11.20;99.90;;;;;;2603138;54;20037;31
2022/10/19 07:01:42;;;;;;;10.88;6.03;;;11.30;99.90;;;;;;2602991;54;20920;31
2022/10/19 07:04:16;;;;;;;11.55;5.50;;;11.30;99.90;;;;;;2602909;54;20033;31
2022/10/19 07:06:48;;;;;;;13.93;5.38;;;11.30;99.90;;;;;;2773476;31;21140;31
2022/10/19 07:09:22;;;;;;;12.80;5.90;;;11.30;99.90;;;;;;2603092;54;20881;31
2022/10/19 07:11:57;;;;;;;12.38;6.28;;;11.70;99.90;;;;;;2609814;46;20095;31
2022/10/19 07:14:37;;;;;;;12.20;5.40;;;11.40;99.90;;;;;;2603178;54;20030;31
2022/10/19 07:17:12;;;;;;;10.10;5.68;;;11.50;99.90;;;;;;2602864;54;20069;31
2022/10/19 07:19:46;;;;;;;9.95;6.25;;;11.80;99.90;;;;;;2603092;54;20026;31
2022/10/19 07:22:21;;;;;;;18.00;6.35;;;11.60;99.90;;;;;;2603176;54;20026;31
2022/10/19 07:25:00;;;;;;;13.30;5.82;;;11.60;99.90;;;;;;2603312;54;20056;31
2022/10/19 07:27:35;;;;;;;16.55;6.10;;;11.90;99.90;;;;;;2603187;54;20038;31
2022/10/19 07:30:17;;;;;;;14.15;5.45;;;11.90;99.90;;;;;;2603199;54;20987;31
2022/10/19 07:32:51;;;;;;;10.13;5.22;;;11.70;99.90;;;;;;2602931;54;20039;31
2022/10/19 07:35:25;;;;;;;13.82;5.07;;;11.80;99.90;;;;;;2621610;47;20058;31
2022/10/19 07:38:01;;;;;;;9.30;5.78;;;11.90;99.90;;;;;;2603078;54;20089;31
2022/10/19 07:40:35;;;;;;;11.30;5.95;;;12.00;99.90;;;;;;2602881;54;20026;31
2022/10/19 07:43:09;;;;;;;12.32;5.55;;;12.20;99.90;;;;;;2602858;54;20050;31
2022/10/19 07:45:46;;;;;;;9.70;5.03;;;12.10;99.90;;;;;;2603089;54;20121;31
2022/10/19 07:48:21;;;;;;;11.65;4.90;;;12.30;99.90;;;;;;2602892;54;20085;31
2022/10/19 07:50:55;;;;;;;10.55;5.18;;;12.10;99.90;;;;;;2602976;54;20071;31
2022/10/19 07:53:29;;;;;;;10.27;4.38;;;12.20;99.90;;;;;;2603392;54;21011;31
2022/10/19 07:56:06;;;;;;;12.85;4.80;;;12.00;99.90;;;;;;2603863;54;20052;31
2022/10/19 07:58:41;;;;;;;10.90;4.20;;;12.00;99.90;;;;;;2603745;54;20781;31
2022/10/19 08:01:20;;;;;;;11.35;3.80;;;12.00;99.90;;;;;;2622143;46;20165;31
2022/10/19 08:03:55;;;;;;;12.77;4.35;;;12.00;99.90;;;;;;2603368;54;20030;31
2022/10/19 08:06:50;;;;;;;8.80;4.50;;;12.00;99.90;;;;;;2603863;54;20829;31
2022/10/19 08:09:24;;;;;;;10.47;3.73;;;12.10;99.90;;;;;;2603690;54;20860;31
2022/10/19 08:12:18;;;;;;;9.00;3.80;;;12.10;99.90;;;;;;2603972;54;20781;31
2022/10/19 08:14:52;;;;;;;13.80;4.75;;;12.20;99.90;;;;;;2603894;54;20836;31
2022/10/19 08:17:29;;;;;;;11.60;3.90;;;12.50;99.90;;;;;;2603833;54;20029;31
2022/10/19 08:20:04;;;;;;;15.27;3.63;;;12.30;99.90;;;;;;2603833;54;20066;31
2022/10/19 08:22:40;;;;;;;10.70;3.33;;;12.30;99.90;;;;;;2603847;54;20026;31
2022/10/19 08:25:14;;;;;;;9.50;3.72;;;12.30;99.90;;;;;;2603648;54;20026;31
2022/10/19 08:27:48;;;;;;;9.18;3.75;;;12.40;99.90;;;;;;2603780;54;20033;31
2022/10/19 08:30:22;;;;;;;9.00;3.88;;;12.40;99.90;;;;;;2603803;54;20023;31
2022/10/19 08:33:00;;;;;;;9.40;2.80;;;12.40;99.90;;;;;;2603824;54;20085;31
2022/10/19 08:35:35;;;;;;;9.50;3.13;;;12.50;99.90;;;;;;2603832;54;20109;31
2022/10/19 08:38:09;;;;;;;13.00;3.15;;;12.50;99.90;;;;;;2603926;54;20089;31
2022/10/19 08:40:46;;;;;;;11.23;2.80;;;12.50;99.90;;;;;;2603538;54;20030;31
2022/10/19 08:43:23;;;;;;;6.65;2.47;;;12.60;99.90;;;;;;2603493;54;20962;31
2022/10/19 08:45:59;;;;;;;6.05;2.83;;;12.60;99.90;;;;;;2602870;54;20118;31
2022/10/19 08:48:38;;;;;;;5.95;1.85;;;12.70;99.90;;;;;;2603589;54;20872;31
2022/10/19 08:51:13;;;;;;;7.50;2.35;;;12.70;99.90;;;;;;2603540;54;21064;31
2022/10/19 08:53:51;;;;;;;4.20;2.33;;;12.80;99.90;;;;;;2603949;54;20944;31
2022/10/19 08:56:29;;;;;;;6.22;2.42;;;12.90;99.90;;;;;;2603689;54;20034;31
2022/10/19 08:59:28;;;;;;;7.95;2.05;;;12.90;99.90;;;;;;2603620;54;20647;31
2022/10/19 09:02:04;;;;;;;4.43;1.53;;;13.00;99.90;;;;;;2603398;54;20031;31
2022/10/19 09:04:42;;;;;;;4.90;2.05;;;13.10;99.90;;;;;;2701871;39;21433;31
2022/10/19 09:07:27;;;;;;;6.88;2.03;;;13.10;99.90;;;;;;2603682;54;20137;31
2022/10/19 09:10:03;;;;;;;5.07;1.90;;;13.10;99.90;;;;;;2603682;54;20035;31
2022/10/19 09:12:42;;;;;;;3.78;1.95;;;13.50;99.90;;;;;;2621774;46;20022;31
2022/10/19 09:15:19;;;;;;;5.20;1.20;;;13.40;99.90;;;;;;2603532;54;20077;31
2022/10/19 09:17:54;;;;;;;7.15;2.03;;;13.40;99.90;;;;;;2622186;46;19958;31
2022/10/19 09:20:33;;;;;;;7.40;1.87;;;13.40;99.90;;;;;;2603502;54;20109;31
2022/10/19 09:23:14;;;;;;;5.30;1.20;;;13.40;99.90;;;;;;2603333;54;20034;31
2022/10/19 09:25:48;;;;;;;4.53;1.10;;;13.80;99.90;;;;;;2603685;54;20027;31
2022/10/19 09:28:34;;;;;;;4.95;1.02;;;13.50;99.90;;;;;;2621923;46;20061;31
2022/10/19 09:31:15;;;;;;;2.78;0.82;;;13.70;99.90;;;;;;2603383;54;20030;31
2022/10/19 09:33:52;;;;;;;3.03;1.05;;;13.70;99.90;;;;;;2603475;54;20053;31
2022/10/19 09:36:31;;;;;;;3.55;1.08;;;13.80;99.90;;;;;;2603540;54;20878;31
2022/10/19 09:39:23;;;;;;;4.47;1.02;;;13.80;99.90;;;;;;2603381;54;20997;31
2022/10/19 09:42:06;;;;;;;2.47;0.90;;;13.70;99.90;;;;;;2603559;54;20026;31
2022/10/19 09:44:40;;;;;;;4.80;0.95;;;13.90;99.90;;;;;;2603405;54;20026;31
2022/10/19 09:47:34;;;;;;;2.58;0.90;;;13.70;99.90;;;;;;2603395;54;20663;31
2022/10/19 09:50:16;;;;;;;2.92;0.77;;;13.80;99.90;;;;;;2603389;54;20022;31
2022/10/19 09:52:53;;;;;;;2.38;0.60;;;13.80;99.90;;;;;;2701983;39;21358;31
2022/10/19 09:55:30;;;;;;;3.72;0.88;;;13.80;99.90;;;;;;2603364;54;21024;31
2022/10/19 09:58:06;;;;;;;3.40;0.73;;;13.90;99.90;;;;;;2603515;54;21280;31
2022/10/19 10:00:41;;;;;;;3.10;0.90;;;13.90;99.90;;;;;;2622232;46;20030;31
2022/10/19 10:03:25;;;;;;;2.55;0.60;;;14.00;99.90;;;;;;2621907;46;20099;31
2022/10/19 10:06:01;;;;;;;4.90;0.60;;;14.00;99.90;;;;;;2603506;54;20030;31
2022/10/19 10:08:39;;;;;;;2.67;1.10;;;14.10;99.90;;;;;;2603533;54;20624;31
2022/10/19 10:11:15;;;;;;;1.85;1.00;;;14.10;99.90;;;;;;2603198;54;20144;31
2022/10/19 10:13:50;;;;;;;2.80;0.98;;;14.10;99.90;;;;;;2701864;39;20470;31
2022/10/19 10:16:28;;;;;;;4.00;0.90;;;14.20;99.90;;;;;;2603057;54;20030;31
2022/10/19 10:19:04;;;;;;;2.63;0.73;;;14.10;99.90;;;;;;2603589;54;20894;31
2022/10/19 10:21:48;;;;;;;4.55;1.00;;;14.10;99.90;;;;;;2603088;54;20891;31
2022/10/19 10:24:26;;;;;;;2.50;1.02;;;14.10;99.90;;;;;;2603446;54;20026;31
2022/10/19 10:27:01;;;;;;;0.85;0.50;;;14.10;99.90;;;;;;2603506;54;20042;31
2022/10/19 10:29:36;;;;;;;6.20;1.55;;;14.20;99.90;;;;;;2603516;54;19952;31
2022/10/19 10:32:15;;;;;;;1.85;0.70;;;14.00;99.90;;;;;;2603043;54;20080;31
2022/10/19 10:34:50;;;;;;;2.00;0.40;;;14.00;99.90;;;;;;2603397;54;20794;31
2022/10/19 10:37:31;;;;;;;1.33;0.40;;;13.90;99.90;;;;;;2603121;54;20101;31
2022/10/19 10:40:18;;;;;;;0.95;0.40;;;14.10;99.90;;;;;;2603146;54;20124;31
2022/10/19 10:42:58;;;;;;;0.90;0.30;;;14.20;99.90;;;;;;2603365;54;20885;31
2022/10/19 10:45:34;;;;;;;5.40;0.40;;;14.20;99.90;;;;;;2602947;54;20430;31
2022/10/19 10:48:17;;;;;;;4.00;0.90;;;14.20;99.90;;;;;;2603457;54;20062;31
2022/10/19 10:50:52;;;;;;;2.50;0.20;;;14.20;99.90;;;;;;2603225;54;20065;31
2022/10/19 10:53:39;;;;;;;1.33;0.30;;;14.10;99.90;;;;;;2602967;54;20027;31
2022/10/19 10:56:39;;;;;;;5.00;0.50;;;14.00;99.90;;;;;;2602903;54;20254;31
2022/10/19 10:59:15;;;;;;;1.90;0.20;;;14.30;99.90;;;;;;2602998;54;20879;31
2022/10/19 11:01:59;;;;;;;;;;;14.00;99.90;;;;;;2603157;54;20026;31
2022/10/19 11:04:35;;;;;;;1.05;0.15;;;14.00;99.90;;;;;;2603150;54;19934;31
2022/10/19 11:07:18;;;;;;;0.65;0.20;;;14.00;99.90;;;;;;2621438;46;20819;31
2022/10/19 11:09:54;;;;;;;1.40;0.30;;;13.90;99.90;;;;;;2603294;54;20034;31
2022/10/19 11:12:36;;;;;;;2.88;0.17;;;14.00;99.90;;;;;;2621723;46;20057;31
2022/10/19 11:15:15;;;;;;;2.17;0.20;;;13.80;99.90;;;;;;2603231;54;20085;31
2022/10/19 11:17:59;;;;;;;0.85;0.20;;;13.70;99.90;;;;;;2603136;54;20116;31
2022/10/19 11:20:34;;;;;;;0.68;0.20;;;13.70;99.90;;;;;;2602994;54;20474;31
2022/10/19 11:23:13;;;;;;;3.10;0.20;;;13.70;99.90;;;;;;2602982;54;20933;31
2022/10/19 11:25:54;;;;;;;1.58;0.30;;;13.70;99.90;;;;;;2602912;54;20046;31
2022/10/19 11:28:39;;;;;;;2.30;0.25;;;13.80;99.90;;;;;;2602886;54;20900;31
2022/10/19 11:31:16;;;;;;;1.47;0.30;;;14.00;99.90;;;;;;2633855;39;20446;31
2022/10/19 11:33:56;;;;;;;1.15;0.28;;;13.60;99.90;;;;;;2602936;54;20403;31
2022/10/19 11:36:40;;;;;;;2.35;0.20;;;13.50;99.90;;;;;;2603096;54;20894;31
2022/10/19 11:39:29;;;;;;;3.60;0.35;;;13.40;99.90;;;;;;2603239;54;20882;31
2022/10/19 11:42:07;;;;;;;1.15;0.30;;;13.40;99.90;;;;;;2602972;54;20034;31
2022/10/19 11:44:51;;;;;;;3.35;0.30;;;13.30;99.90;;;;;;2602971;54;20855;31
2022/10/19 11:47:49;;;;;;;1.65;0.40;;;13.30;99.90;;;;;;2602929;54;20978;31
2022/10/19 11:50:35;;;;;;;2.13;0.40;;;13.30;99.90;;;;;;2603109;54;20033;31
2022/10/19 11:53:13;;;;;;;2.42;0.70;;;13.30;99.90;;;;;;2602979;54;20877;31
2022/10/19 11:55:52;;;;;;;1.95;0.30;;;13.30;99.90;;;;;;2602766;54;20757;31
2022/10/19 11:58:51;;;;;;;5.82;0.60;;;13.40;99.90;;;;;;2602131;54;20037;31
2022/10/19 12:01:39;;;;;;;4.00;0.60;;;13.50;99.90;;;;;;2602920;54;20868;31
2022/10/19 12:04:23;;;;;;;2.75;0.55;;;13.60;99.90;;;;;;2602897;54;20033;31
2022/10/19 12:07:02;;;;;;;3.53;0.50;;;13.60;99.90;;;;;;2602885;54;20108;31
2022/10/19 12:09:45;;;;;;;3.30;0.98;;;13.70;99.90;;;;;;2621273;47;20036;31
2022/10/19 12:12:32;;;;;;;4.55;1.10;;;13.70;99.90;;;;;;2602745;54;20888;31
2022/10/19 12:15:19;;;;;;;4.65;0.90;;;13.60;99.90;;;;;;2602990;54;20485;31
2022/10/19 12:17:57;;;;;;;4.60;0.75;;;13.50;99.90;;;;;;2602770;54;20738;31
2022/10/19 12:20:34;;;;;;;4.22;1.48;;;13.50;99.90;;;;;;2621352;47;20924;31
2022/10/19 12:23:20;;;;;;;5.50;0.90;;;13.50;99.90;;;;;;2602652;54;20810;31
2022/10/19 12:25:55;;;;;;;4.40;0.90;;;13.40;99.90;;;;;;2690816;31;20414;31
2022/10/19 12:28:31;;;;;;;3.63;0.80;;;13.30;99.90;;;;;;2602910;54;20046;31
2022/10/19 12:31:05;;;;;;;;;;;13.30;99.90;;;;;;2621533;47;20034;31
2022/10/19 12:33:47;;;;;;;3.42;0.68;;;13.40;99.90;;;;;;2621053;47;19946;31
2022/10/19 12:36:27;;;;;;;4.35;0.90;;;13.30;99.90;;;;;;2602633;54;20858;31
2022/10/19 12:39:04;;;;;;;5.25;1.27;;;13.30;99.90;;;;;;2621254;47;20891;31
2022/10/19 12:41:41;;;;;;;2.90;0.95;;;13.30;99.90;;;;;;2603561;54;20834;31
2022/10/19 12:44:31;;;;;;;2.55;0.73;;;13.30;99.90;;;;;;2603640;54;20030;31
2022/10/19 12:47:05;;;;;;;6.15;0.80;;;13.40;99.90;;;;;;2624482;39;20325;31
2022/10/19 12:49:49;;;;;;;2.72;0.82;;;13.30;99.90;;;;;;2622113;46;20927;31
2022/10/19 12:52:43;;;;;;;2.65;0.80;;;13.30;99.90;;;;;;2603429;54;20037;31
2022/10/19 12:55:33;;;;;;;4.90;0.60;;;13.30;99.90;;;;;;2622328;46;20407;31
2022/10/19 12:58:08;;;;;;;3.85;0.80;;;13.30;99.90;;;;;;2614416;39;20334;31
2022/10/19 13:00:42;;;;;;;3.25;0.98;;;13.60;99.90;;;;;;2603371;54;20061;31
2022/10/19 13:03:18;;;;;;;4.75;0.80;;;13.10;99.90;;;;;;2622085;46;20950;31
2022/10/19 13:06:00;;;;;;;6.43;1.02;;;13.50;99.90;;;;;;2621744;46;20883;31
2022/10/19 13:08:37;;;;;;;6.05;1.33;;;13.10;99.90;;;;;;2603413;54;20882;31
2022/10/19 13:11:13;;;;;;;4.10;0.70;;;13.00;99.90;;;;;;2603273;54;20095;31
2022/10/19 13:14:05;;;;;;;9.90;1.00;;;13.00;99.90;;;;;;2621686;46;20031;31
2022/10/19 13:16:57;;;;;;;1.80;0.60;;;13.00;99.90;;;;;;2603565;54;20061;31
2022/10/19 13:19:31;;;;;;;3.63;1.20;;;13.40;99.90;;;;;;2603510;54;20022;31
2022/10/19 13:22:29;;;;;;;1.05;0.60;;;13.00;99.90;;;;;;2603338;54;20026;31
2022/10/19 13:25:28;;;;;;;10.17;1.80;;;12.90;99.90;;;;;;2603489;54;20042;31
2022/10/19 13:28:03;;;;;;;2.00;0.80;;;12.90;99.90;;;;;;2603748;54;19934;31
2022/10/19 13:30:59;;;;;;;2.40;0.65;;;12.90;99.90;;;;;;2613276;39;21295;31
2022/10/19 13:33:52;;;;;;;3.95;0.50;;;12.90;99.90;;;;;;2603466;54;20046;31
2022/10/19 13:36:26;;;;;;;1.92;0.47;;;12.90;99.90;;;;;;2603422;54;20089;31
2022/10/19 13:39:07;;;;;;;3.47;0.60;;;12.90;99.90;;;;;;2622116;46;20967;31
2022/10/19 13:41:55;;;;;;;3.53;0.60;;;12.90;99.90;;;;;;2603306;54;20033;31